sensor_id;sensor_type;location;lat;lon;timestamp;temperature;humidity
39777;DHT22;25453;48.162;14.510;2022-08-21T00:00:07;20.00;83.40
39777;DHT22;25453;48.162;14.510;2022-08-21T00:02:47;20.00;83.50
39777;DHT22;25453;48.162;14.510;2022-08-21T00:05:16;20.00;83.40
39777;DHT22;25453;48.162;14.510;2022-08-21T00:07:50;20.00;83.50
39777;DHT22;25453;48.162;14.510;2022-08-21T00:10:18;20.00;83.60
39777;DHT22;25453;48.162;14.510;2022-08-21T00:12:52;20.10;83.60
39777;DHT22;25453;48.162;14.510;2022-08-21T00:15:34;20.10;83.60
39777;DHT22;25453;48.162;14.510;2022-08-21T00:18:02;20.10;83.50
39777;DHT22;25453;48.162;14.510;2022-08-21T00:20:37;20.10;83.40
39777;DHT22;25453;48.162;14.510;2022-08-21T00:23:12;20.10;83.40
39777;DHT22;25453;48.162;14.510;2022-08-21T00:25:40;20.10;83.40
39777;DHT22;25453;48.162;14.510;2022-08-21T00:28:14;20.10;83.40
39777;DHT22;25453;48.162;14.510;2022-08-21T00:30:42;20.10;83.40
39777;DHT22;25453;48.162;14.510;2022-08-21T00:33:16;20.20;83.20
39777;DHT22;25453;48.162;14.510;2022-08-21T00:35:43;20.10;83.30
39777;DHT22;25453;48.162;14.510;2022-08-21T00:38:17;20.10;83.30
39777;DHT22;25453;48.162;14.510;2022-08-21T00:40:54;20.10;83.40
39777;DHT22;25453;48.162;14.510;2022-08-21T00:43:29;20.20;83.20
39777;DHT22;25453;48.162;14.510;2022-08-21T00:46:05;20.20;83.20
39777;DHT22;25453;48.162;14.510;2022-08-21T00:48:39;20.20;83.20
39777;DHT22;25453;48.162;14.510;2022-08-21T00:51:16;20.20;83.00
39777;DHT22;25453;48.162;14.510;2022-08-21T00:53:56;20.10;83.10
39777;DHT22;25453;48.162;14.510;2022-08-21T00:56:25;20.10;83.30
39777;DHT22;25453;48.162;14.510;2022-08-21T00:58:52;20.10;83.20
39777;DHT22;25453;48.162;14.510;2022-08-21T01:01:28;20.10;83.20
39777;DHT22;25453;48.162;14.510;2022-08-21T01:04:02;20.10;83.30
39777;DHT22;25453;48.162;14.510;2022-08-21T01:06:30;20.20;83.20
39777;DHT22;25453;48.162;14.510;2022-08-21T01:09:05;20.20;83.10
39777;DHT22;25453;48.162;14.510;2022-08-21T01:11:46;20.20;83.00
39777;DHT22;25453;48.162;14.510;2022-08-21T01:14:15;20.10;83.20
39777;DHT22;25453;48.162;14.510;2022-08-21T01:16:50;20.10;83.30
39777;DHT22;25453;48.162;14.510;2022-08-21T01:19:18;20.10;83.20
39777;DHT22;25453;48.162;14.510;2022-08-21T01:21:53;20.10;83.10
39777;DHT22;25453;48.162;14.510;2022-08-21T01:24:21;20.10;83.20
39777;DHT22;25453;48.162;14.510;2022-08-21T01:26:56;20.10;83.30
39777;DHT22;25453;48.162;14.510;2022-08-21T01:32:13;20.10;83.00
39777;DHT22;25453;48.162;14.510;2022-08-21T01:34:41;20.10;83.00
39777;DHT22;25453;48.162;14.510;2022-08-21T01:37:16;20.10;83.00
39777;DHT22;25453;48.162;14.510;2022-08-21T01:39:44;20.00;83.00
39777;DHT22;25453;48.162;14.510;2022-08-21T01:42:18;20.00;83.10
39777;DHT22;25453;48.162;14.510;2022-08-21T01:44:45;20.00;83.10
39777;DHT22;25453;48.162;14.510;2022-08-21T01:47:22;19.90;83.30
39777;DHT22;25453;48.162;14.510;2022-08-21T01:49:50;20.00;83.40
39777;DHT22;25453;48.162;14.510;2022-08-21T01:52:23;20.00;83.50
39777;DHT22;25453;48.162;14.510;2022-08-21T01:54:50;20.00;83.50
39777;DHT22;25453;48.162;14.510;2022-08-21T01:57:25;20.00;83.40
39777;DHT22;25453;48.162;14.510;2022-08-21T01:59:52;20.00;83.30
39777;DHT22;25453;48.162;14.510;2022-08-21T02:02:26;20.00;83.20
39777;DHT22;25453;48.162;14.510;2022-08-21T02:04:53;20.00;83.30
39777;DHT22;25453;48.162;14.510;2022-08-21T02:07:27;20.00;83.30
39777;DHT22;25453;48.162;14.510;2022-08-21T02:09:55;20.00;83.40
39777;DHT22;25453;48.162;14.510;2022-08-21T02:12:28;20.00;83.50
39777;DHT22;25453;48.162;14.510;2022-08-21T02:15:03;20.00;83.40
39777;DHT22;25453;48.162;14.510;2022-08-21T02:17:41;20.00;83.50
39777;DHT22;25453;48.162;14.510;2022-08-21T02:20:10;20.00;83.40
39777;DHT22;25453;48.162;14.510;2022-08-21T02:22:44;20.00;83.40
39777;DHT22;25453;48.162;14.510;2022-08-21T02:25:12;20.00;83.20
39777;DHT22;25453;48.162;14.510;2022-08-21T02:27:47;20.00;83.30
39777;DHT22;25453;48.162;14.510;2022-08-21T02:30:18;19.90;83.40
39777;DHT22;25453;48.162;14.510;2022-08-21T02:32:52;19.90;83.60
39777;DHT22;25453;48.162;14.510;2022-08-21T02:35:20;20.00;83.50
39777;DHT22;25453;48.162;14.510;2022-08-21T02:37:48;20.00;83.60
39777;DHT22;25453;48.162;14.510;2022-08-21T02:40:24;20.00;83.50
39777;DHT22;25453;48.162;14.510;2022-08-21T02:42:52;20.00;83.50
39777;DHT22;25453;48.162;14.510;2022-08-21T02:45:33;20.10;83.60
39777;DHT22;25453;48.162;14.510;2022-08-21T02:48:08;20.10;83.50
39777;DHT22;25453;48.162;14.510;2022-08-21T02:50:45;20.10;83.50
39777;DHT22;25453;48.162;14.510;2022-08-21T02:53:20;20.10;83.50
39777;DHT22;25453;48.162;14.510;2022-08-21T02:55:48;20.10;83.50
39777;DHT22;25453;48.162;14.510;2022-08-21T02:58:25;20.20;83.50
39777;DHT22;25453;48.162;14.510;2022-08-21T03:00:53;20.20;83.40
39777;DHT22;25453;48.162;14.510;2022-08-21T03:03:27;20.20;83.40
39777;DHT22;25453;48.162;14.510;2022-08-21T03:05:55;20.20;83.40
39777;DHT22;25453;48.162;14.510;2022-08-21T03:08:29;20.20;83.30
39777;DHT22;25453;48.162;14.510;2022-08-21T03:11:03;20.20;83.30
39777;DHT22;25453;48.162;14.510;2022-08-21T03:13:39;20.20;83.30
39777;DHT22;25453;48.162;14.510;2022-08-21T03:16:12;20.20;83.20
39777;DHT22;25453;48.162;14.510;2022-08-21T03:18:46;20.20;83.30
39777;DHT22;25453;48.162;14.510;2022-08-21T03:21:14;20.20;83.30
39777;DHT22;25453;48.162;14.510;2022-08-21T03:23:41;20.20;83.30
39777;DHT22;25453;48.162;14.510;2022-08-21T03:26:16;20.20;83.20
39777;DHT22;25453;48.162;14.510;2022-08-21T03:28:45;20.20;83.30
39777;DHT22;25453;48.162;14.510;2022-08-21T03:31:19;20.20;83.30
39777;DHT22;25453;48.162;14.510;2022-08-21T03:33:55;20.20;83.30
39777;DHT22;25453;48.162;14.510;2022-08-21T03:36:23;20.20;83.50
39777;DHT22;25453;48.162;14.510;2022-08-21T03:38:57;20.20;83.40
39777;DHT22;25453;48.162;14.510;2022-08-21T03:41:31;20.10;83.60
39777;DHT22;25453;48.162;14.510;2022-08-21T03:44:05;20.10;83.60
39777;DHT22;25453;48.162;14.510;2022-08-21T03:46:32;20.20;83.50
39777;DHT22;25453;48.162;14.510;2022-08-21T03:49:06;20.10;83.70
39777;DHT22;25453;48.162;14.510;2022-08-21T03:51:34;20.20;83.60
39777;DHT22;25453;48.162;14.510;2022-08-21T03:54:09;20.20;83.50
39777;DHT22;25453;48.162;14.510;2022-08-21T03:56:37;20.20;83.60
39777;DHT22;25453;48.162;14.510;2022-08-21T03:59:10;20.20;83.70
39777;DHT22;25453;48.162;14.510;2022-08-21T04:01:39;20.20;83.50
39777;DHT22;25453;48.162;14.510;2022-08-21T04:04:17;20.10;83.70
39777;DHT22;25453;48.162;14.510;2022-08-21T04:06:44;20.10;83.70
39777;DHT22;25453;48.162;14.510;2022-08-21T04:09:17;20.10;83.80
39777;DHT22;25453;48.162;14.510;2022-08-21T04:11:51;20.20;83.80
39777;DHT22;25453;48.162;14.510;2022-08-21T04:14:25;20.20;83.80
39777;DHT22;25453;48.162;14.510;2022-08-21T04:17:00;20.20;83.70
39777;DHT22;25453;48.162;14.510;2022-08-21T04:19:34;20.10;83.80
39777;DHT22;25453;48.162;14.510;2022-08-21T04:22:02;20.10;83.80
39777;DHT22;25453;48.162;14.510;2022-08-21T04:24:36;20.10;83.90
39777;DHT22;25453;48.162;14.510;2022-08-21T04:27:03;20.10;83.90
39777;DHT22;25453;48.162;14.510;2022-08-21T04:29:37;20.10;84.00
39777;DHT22;25453;48.162;14.510;2022-08-21T04:32:05;20.10;83.90
39777;DHT22;25453;48.162;14.510;2022-08-21T04:34:40;20.10;83.80
39777;DHT22;25453;48.162;14.510;2022-08-21T04:37:08;20.10;83.90
39777;DHT22;25453;48.162;14.510;2022-08-21T04:39:35;20.10;83.90
39777;DHT22;25453;48.162;14.510;2022-08-21T04:42:10;20.10;83.90
39777;DHT22;25453;48.162;14.510;2022-08-21T04:44:37;20.10;84.00
39777;DHT22;25453;48.162;14.510;2022-08-21T04:47:10;20.10;83.90
39777;DHT22;25453;48.162;14.510;2022-08-21T04:49:45;20.10;83.90
39777;DHT22;25453;48.162;14.510;2022-08-21T04:52:13;20.00;84.00
39777;DHT22;25453;48.162;14.510;2022-08-21T04:54:50;20.00;84.10
39777;DHT22;25453;48.162;14.510;2022-08-21T04:57:25;20.00;84.10
39777;DHT22;25453;48.162;14.510;2022-08-21T05:00:14;20.00;84.20
39777;DHT22;25453;48.162;14.510;2022-08-21T05:02:48;20.00;84.10
39777;DHT22;25453;48.162;14.510;2022-08-21T05:05:16;20.00;84.00
39777;DHT22;25453;48.162;14.510;2022-08-21T05:07:50;20.00;83.80
39777;DHT22;25453;48.162;14.510;2022-08-21T05:10:18;19.90;84.00
39777;DHT22;25453;48.162;14.510;2022-08-21T05:12:59;19.90;84.20
39777;DHT22;25453;48.162;14.510;2022-08-21T05:15:34;19.90;84.30
39777;DHT22;25453;48.162;14.510;2022-08-21T05:18:10;19.90;84.40
39777;DHT22;25453;48.162;14.510;2022-08-21T05:20:58;19.90;84.40
39777;DHT22;25453;48.162;14.510;2022-08-21T05:23:26;19.90;84.50
39777;DHT22;25453;48.162;14.510;2022-08-21T05:25:59;20.00;84.50
39777;DHT22;25453;48.162;14.510;2022-08-21T05:28:27;20.00;84.30
39777;DHT22;25453;48.162;14.510;2022-08-21T05:31:00;20.00;84.30
39777;DHT22;25453;48.162;14.510;2022-08-21T05:33:35;20.00;84.40
39777;DHT22;25453;48.162;14.510;2022-08-21T05:36:05;20.00;84.30
39777;DHT22;25453;48.162;14.510;2022-08-21T05:38:39;20.00;84.30
39777;DHT22;25453;48.162;14.510;2022-08-21T05:41:14;20.00;84.30
39777;DHT22;25453;48.162;14.510;2022-08-21T05:43:49;19.90;84.30
39777;DHT22;25453;48.162;14.510;2022-08-21T05:46:16;19.90;84.50
39777;DHT22;25453;48.162;14.510;2022-08-21T05:48:50;20.00;84.50
39777;DHT22;25453;48.162;14.510;2022-08-21T05:51:18;20.00;84.50
39777;DHT22;25453;48.162;14.510;2022-08-21T05:53:51;20.00;84.60
39777;DHT22;25453;48.162;14.510;2022-08-21T05:56:18;20.00;84.60
39777;DHT22;25453;48.162;14.510;2022-08-21T05:58:52;20.00;84.60
39777;DHT22;25453;48.162;14.510;2022-08-21T06:01:19;20.00;84.70
39777;DHT22;25453;48.162;14.510;2022-08-21T06:03:57;20.10;84.60
39777;DHT22;25453;48.162;14.510;2022-08-21T06:06:27;20.10;84.70
39777;DHT22;25453;48.162;14.510;2022-08-21T06:09:04;20.10;84.60
39777;DHT22;25453;48.162;14.510;2022-08-21T06:11:39;20.10;84.60
39777;DHT22;25453;48.162;14.510;2022-08-21T06:14:27;20.10;84.60
39777;DHT22;25453;48.162;14.510;2022-08-21T06:17:03;20.10;84.80
39777;DHT22;25453;48.162;14.510;2022-08-21T06:19:37;20.10;84.80
39777;DHT22;25453;48.162;14.510;2022-08-21T06:22:04;20.10;84.90
39777;DHT22;25453;48.162;14.510;2022-08-21T06:24:41;20.20;84.90
39777;DHT22;25453;48.162;14.510;2022-08-21T06:27:14;20.20;84.70
39777;DHT22;25453;48.162;14.510;2022-08-21T06:29:42;20.20;84.80
39777;DHT22;25453;48.162;14.510;2022-08-21T06:32:16;20.20;84.70
39777;DHT22;25453;48.162;14.510;2022-08-21T06:34:51;20.20;84.70
39777;DHT22;25453;48.162;14.510;2022-08-21T06:37:18;20.20;84.70
39777;DHT22;25453;48.162;14.510;2022-08-21T06:39:45;20.20;84.80
39777;DHT22;25453;48.162;14.510;2022-08-21T06:42:19;20.20;84.80
39777;DHT22;25453;48.162;14.510;2022-08-21T06:44:53;20.20;84.80
39777;DHT22;25453;48.162;14.510;2022-08-21T06:47:27;20.20;84.90
39777;DHT22;25453;48.162;14.510;2022-08-21T06:50:01;20.20;84.90
39777;DHT22;25453;48.162;14.510;2022-08-21T06:52:36;20.20;85.00
39777;DHT22;25453;48.162;14.510;2022-08-21T06:55:12;20.20;85.10
39777;DHT22;25453;48.162;14.510;2022-08-21T06:57:47;20.20;85.10
39777;DHT22;25453;48.162;14.510;2022-08-21T07:00:21;20.30;85.20
39777;DHT22;25453;48.162;14.510;2022-08-21T07:02:55;20.30;85.20
39777;DHT22;25453;48.162;14.510;2022-08-21T07:05:27;20.30;85.20
39777;DHT22;25453;48.162;14.510;2022-08-21T07:08:01;20.30;85.20
39777;DHT22;25453;48.162;14.510;2022-08-21T07:10:30;20.30;85.10
39777;DHT22;25453;48.162;14.510;2022-08-21T07:13:03;20.30;85.20
39777;DHT22;25453;48.162;14.510;2022-08-21T07:15:38;20.30;85.20
39777;DHT22;25453;48.162;14.510;2022-08-21T07:18:12;20.30;85.30
39777;DHT22;25453;48.162;14.510;2022-08-21T07:20:40;20.40;85.30
39777;DHT22;25453;48.162;14.510;2022-08-21T07:23:27;20.40;85.40
39777;DHT22;25453;48.162;14.510;2022-08-21T07:25:54;20.40;85.40
39777;DHT22;25453;48.162;14.510;2022-08-21T07:28:29;20.40;85.50
39777;DHT22;25453;48.162;14.510;2022-08-21T07:30:58;20.40;85.50
39777;DHT22;25453;48.162;14.510;2022-08-21T07:33:33;20.40;85.60
39777;DHT22;25453;48.162;14.510;2022-08-21T07:36:01;20.40;85.60
39777;DHT22;25453;48.162;14.510;2022-08-21T07:38:35;20.40;85.60
39777;DHT22;25453;48.162;14.510;2022-08-21T07:41:07;20.30;85.70
39777;DHT22;25453;48.162;14.510;2022-08-21T07:43:44;20.40;85.80
39777;DHT22;25453;48.162;14.510;2022-08-21T07:46:12;20.40;86.00
39777;DHT22;25453;48.162;14.510;2022-08-21T07:48:48;20.40;86.00
39777;DHT22;25453;48.162;14.510;2022-08-21T07:51:22;20.40;86.00
39777;DHT22;25453;48.162;14.510;2022-08-21T07:53:57;20.40;86.20
39777;DHT22;25453;48.162;14.510;2022-08-21T07:56:29;20.40;86.20
39777;DHT22;25453;48.162;14.510;2022-08-21T07:59:04;20.40;86.20
39777;DHT22;25453;48.162;14.510;2022-08-21T08:01:32;20.40;86.20
39777;DHT22;25453;48.162;14.510;2022-08-21T08:04:07;20.40;86.30
39777;DHT22;25453;48.162;14.510;2022-08-21T08:06:35;20.40;86.40
39777;DHT22;25453;48.162;14.510;2022-08-21T08:09:09;20.50;86.50
39777;DHT22;25453;48.162;14.510;2022-08-21T08:11:43;20.50;86.50
39777;DHT22;25453;48.162;14.510;2022-08-21T08:14:17;20.50;86.60
39777;DHT22;25453;48.162;14.510;2022-08-21T08:16:58;20.50;86.60
39777;DHT22;25453;48.162;14.510;2022-08-21T08:19:26;20.50;86.70
39777;DHT22;25453;48.162;14.510;2022-08-21T08:22:00;20.50;86.60
39777;DHT22;25453;48.162;14.510;2022-08-21T08:24:27;20.50;86.80
39777;DHT22;25453;48.162;14.510;2022-08-21T08:27:02;20.50;86.80
39777;DHT22;25453;48.162;14.510;2022-08-21T08:29:30;20.50;86.80
39777;DHT22;25453;48.162;14.510;2022-08-21T08:32:05;20.60;86.80
39777;DHT22;25453;48.162;14.510;2022-08-21T08:34:36;20.60;86.80
39777;DHT22;25453;48.162;14.510;2022-08-21T08:37:11;20.60;86.80
39777;DHT22;25453;48.162;14.510;2022-08-21T08:39:40;20.60;86.90
39777;DHT22;25453;48.162;14.510;2022-08-21T08:42:23;20.60;87.00
39777;DHT22;25453;48.162;14.510;2022-08-21T08:47:34;20.60;87.00
39777;DHT22;25453;48.162;14.510;2022-08-21T08:50:12;20.60;87.00
39777;DHT22;25453;48.162;14.510;2022-08-21T08:52:52;20.60;86.90
39777;DHT22;25453;48.162;14.510;2022-08-21T08:55:33;20.60;87.00
39777;DHT22;25453;48.162;14.510;2022-08-21T08:58:02;20.60;87.00
39777;DHT22;25453;48.162;14.510;2022-08-21T09:00:37;20.60;86.90
39777;DHT22;25453;48.162;14.510;2022-08-21T09:03:04;20.60;87.00
39777;DHT22;25453;48.162;14.510;2022-08-21T09:05:49;20.50;87.20
39777;DHT22;25453;48.162;14.510;2022-08-21T09:13:39;20.60;87.20
39777;DHT22;25453;48.162;14.510;2022-08-21T09:24:31;20.50;87.20
39777;DHT22;25453;48.162;14.510;2022-08-21T09:27:07;20.50;87.20
39777;DHT22;25453;48.162;14.510;2022-08-21T09:29:40;20.50;87.20
39777;DHT22;25453;48.162;14.510;2022-08-21T09:32:16;20.50;87.20
39777;DHT22;25453;48.162;14.510;2022-08-21T09:37:47;20.50;87.30
39777;DHT22;25453;48.162;14.510;2022-08-21T09:40:26;20.50;87.30
39777;DHT22;25453;48.162;14.510;2022-08-21T09:43:17;20.50;87.30
39777;DHT22;25453;48.162;14.510;2022-08-21T09:45:46;20.50;87.40
39777;DHT22;25453;48.162;14.510;2022-08-21T09:48:21;20.50;87.50
39777;DHT22;25453;48.162;14.510;2022-08-21T09:50:53;20.50;87.40
39777;DHT22;25453;48.162;14.510;2022-08-21T09:53:28;20.60;87.40
39777;DHT22;25453;48.162;14.510;2022-08-21T09:56:05;20.50;87.30
39777;DHT22;25453;48.162;14.510;2022-08-21T09:59:13;20.50;87.40
39777;DHT22;25453;48.162;14.510;2022-08-21T10:01:50;20.50;87.50
39777;DHT22;25453;48.162;14.510;2022-08-21T10:04:27;20.60;87.50
39777;DHT22;25453;48.162;14.510;2022-08-21T10:07:08;20.60;87.40
39777;DHT22;25453;48.162;14.510;2022-08-21T10:09:43;20.50;87.30
39777;DHT22;25453;48.162;14.510;2022-08-21T10:12:25;20.60;87.30
39777;DHT22;25453;48.162;14.510;2022-08-21T10:18:02;20.60;87.50
39777;DHT22;25453;48.162;14.510;2022-08-21T10:20:47;20.60;87.40
39777;DHT22;25453;48.162;14.510;2022-08-21T10:26:11;20.50;87.30
39777;DHT22;25453;48.162;14.510;2022-08-21T10:29:03;20.50;87.50
39777;DHT22;25453;48.162;14.510;2022-08-21T10:31:55;20.50;87.60
39777;DHT22;25453;48.162;14.510;2022-08-21T10:40:24;20.50;87.60
39777;DHT22;25453;48.162;14.510;2022-08-21T10:43:09;20.50;87.70
39777;DHT22;25453;48.162;14.510;2022-08-21T10:51:11;20.40;87.70
39777;DHT22;25453;48.162;14.510;2022-08-21T10:56:24;20.50;87.90
39777;DHT22;25453;48.162;14.510;2022-08-21T11:01:46;20.50;88.00
39777;DHT22;25453;48.162;14.510;2022-08-21T11:04:20;20.60;88.10
39777;DHT22;25453;48.162;14.510;2022-08-21T11:07:28;20.60;88.10
39777;DHT22;25453;48.162;14.510;2022-08-21T11:10:05;20.70;88.00
39777;DHT22;25453;48.162;14.510;2022-08-21T11:12:50;20.70;87.90
39777;DHT22;25453;48.162;14.510;2022-08-21T11:15:50;20.70;87.80
39777;DHT22;25453;48.162;14.510;2022-08-21T11:18:39;20.70;87.70
39777;DHT22;25453;48.162;14.510;2022-08-21T11:21:32;20.70;87.70
39777;DHT22;25453;48.162;14.510;2022-08-21T11:26:51;20.70;87.80
39777;DHT22;25453;48.162;14.510;2022-08-21T11:29:30;20.80;87.80
39777;DHT22;25453;48.162;14.510;2022-08-21T11:37:58;20.80;87.30
39777;DHT22;25453;48.162;14.510;2022-08-21T11:48:48;20.90;87.30
39777;DHT22;25453;48.162;14.510;2022-08-21T11:51:27;20.90;87.30
39777;DHT22;25453;48.162;14.510;2022-08-21T11:56:37;20.90;87.20
39777;DHT22;25453;48.162;14.510;2022-08-21T11:59:11;21.00;87.20
39777;DHT22;25453;48.162;14.510;2022-08-21T12:01:48;21.00;87.20
39777;DHT22;25453;48.162;14.510;2022-08-21T12:04:26;21.10;87.30
39777;DHT22;25453;48.162;14.510;2022-08-21T12:06:54;21.10;87.10
39777;DHT22;25453;48.162;14.510;2022-08-21T12:09:31;21.20;87.00
39777;DHT22;25453;48.162;14.510;2022-08-21T12:14:51;21.30;86.60
39777;DHT22;25453;48.162;14.510;2022-08-21T12:17:37;21.40;86.50
39777;DHT22;25453;48.162;14.510;2022-08-21T12:20:56;21.50;86.20
39777;DHT22;25453;48.162;14.510;2022-08-21T12:23:18;21.50;85.70
39777;DHT22;25453;48.162;14.510;2022-08-21T12:25:48;21.60;85.60
39777;DHT22;25453;48.162;14.510;2022-08-21T12:28:34;21.60;85.20
39777;DHT22;25453;48.162;14.510;2022-08-21T12:31:22;21.70;84.80
39777;DHT22;25453;48.162;14.510;2022-08-21T12:33:59;21.70;84.50
39777;DHT22;25453;48.162;14.510;2022-08-21T12:36:46;21.80;84.30
39777;DHT22;25453;48.162;14.510;2022-08-21T12:39:19;21.80;84.20
39777;DHT22;25453;48.162;14.510;2022-08-21T12:44:35;22.10;83.80
39777;DHT22;25453;48.162;14.510;2022-08-21T12:47:15;22.30;83.70
39777;DHT22;25453;48.162;14.510;2022-08-21T12:52:27;22.60;81.60
39777;DHT22;25453;48.162;14.510;2022-08-21T12:55:01;22.70;81.10
39777;DHT22;25453;48.162;14.510;2022-08-21T12:57:39;22.80;80.50
39777;DHT22;25453;48.162;14.510;2022-08-21T13:00:10;22.80;80.10
39777;DHT22;25453;48.162;14.510;2022-08-21T13:02:48;22.80;79.60
39777;DHT22;25453;48.162;14.510;2022-08-21T13:05:25;22.80;79.40
39777;DHT22;25453;48.162;14.510;2022-08-21T13:08:04;22.90;79.50
39777;DHT22;25453;48.162;14.510;2022-08-21T13:10:32;23.10;78.50
39777;DHT22;25453;48.162;14.510;2022-08-21T13:13:13;23.20;77.70
39777;DHT22;25453;48.162;14.510;2022-08-21T13:16:04;23.40;77.00
39777;DHT22;25453;48.162;14.510;2022-08-21T13:18:51;23.40;76.30
39777;DHT22;25453;48.162;14.510;2022-08-21T13:21:21;23.40;75.40
39777;DHT22;25453;48.162;14.510;2022-08-21T13:27:20;23.60;75.40
39777;DHT22;25453;48.162;14.510;2022-08-21T13:29:59;23.80;74.30
39777;DHT22;25453;48.162;14.510;2022-08-21T13:32:35;23.90;73.80
39777;DHT22;25453;48.162;14.510;2022-08-21T13:35:14;24.00;72.90
39777;DHT22;25453;48.162;14.510;2022-08-21T13:37:49;24.00;72.40
39777;DHT22;25453;48.162;14.510;2022-08-21T13:40:26;24.00;71.90
39777;DHT22;25453;48.162;14.510;2022-08-21T13:42:55;24.00;71.60
39777;DHT22;25453;48.162;14.510;2022-08-21T13:45:32;23.80;71.50
39777;DHT22;25453;48.162;14.510;2022-08-21T13:48:06;23.60;71.20
39777;DHT22;25453;48.162;14.510;2022-08-21T13:50:34;23.40;71.40
39777;DHT22;25453;48.162;14.510;2022-08-21T13:53:19;23.20;71.80
39777;DHT22;25453;48.162;14.510;2022-08-21T13:55:49;23.10;72.00
39777;DHT22;25453;48.162;14.510;2022-08-21T13:58:27;22.80;71.90
39777;DHT22;25453;48.162;14.510;2022-08-21T14:00:56;22.60;72.20
39777;DHT22;25453;48.162;14.510;2022-08-21T14:03:41;22.40;72.90
39777;DHT22;25453;48.162;14.510;2022-08-21T14:06:16;22.30;73.30
39777;DHT22;25453;48.162;14.510;2022-08-21T14:08:51;22.20;73.60
39777;DHT22;25453;48.162;14.510;2022-08-21T14:11:28;22.10;73.80
39777;DHT22;25453;48.162;14.510;2022-08-21T14:14:22;22.00;74.20
39777;DHT22;25453;48.162;14.510;2022-08-21T14:16:59;22.00;74.40
39777;DHT22;25453;48.162;14.510;2022-08-21T14:19:54;21.90;74.50
39777;DHT22;25453;48.162;14.510;2022-08-21T14:22:29;21.80;74.70
39777;DHT22;25453;48.162;14.510;2022-08-21T14:27:35;21.80;75.10
39777;DHT22;25453;48.162;14.510;2022-08-21T14:30:12;21.70;75.00
39777;DHT22;25453;48.162;14.510;2022-08-21T14:32:47;21.70;75.30
39777;DHT22;25453;48.162;14.510;2022-08-21T14:35:15;21.70;75.40
39777;DHT22;25453;48.162;14.510;2022-08-21T14:37:57;21.70;75.30
39777;DHT22;25453;48.162;14.510;2022-08-21T14:40:32;21.80;75.60
39777;DHT22;25453;48.162;14.510;2022-08-21T14:43:00;21.90;75.70
39777;DHT22;25453;48.162;14.510;2022-08-21T14:45:36;22.10;75.40
39777;DHT22;25453;48.162;14.510;2022-08-21T14:48:06;22.30;74.80
39777;DHT22;25453;48.162;14.510;2022-08-21T14:50:41;22.30;74.10
39777;DHT22;25453;48.162;14.510;2022-08-21T14:53:09;22.30;73.70
39777;DHT22;25453;48.162;14.510;2022-08-21T14:55:44;22.20;73.50
39777;DHT22;25453;48.162;14.510;2022-08-21T14:58:30;22.20;73.70
39777;DHT22;25453;48.162;14.510;2022-08-21T15:01:05;22.20;73.70
39777;DHT22;25453;48.162;14.510;2022-08-21T15:03:35;22.20;73.70
39777;DHT22;25453;48.162;14.510;2022-08-21T15:06:09;22.30;73.80
39777;DHT22;25453;48.162;14.510;2022-08-21T15:08:43;22.40;73.50
39777;DHT22;25453;48.162;14.510;2022-08-21T15:11:11;22.40;73.60
39777;DHT22;25453;48.162;14.510;2022-08-21T15:14:00;22.50;73.50
39777;DHT22;25453;48.162;14.510;2022-08-21T15:16:35;22.60;73.20
39777;DHT22;25453;48.162;14.510;2022-08-21T15:19:09;22.60;72.40
39777;DHT22;25453;48.162;14.510;2022-08-21T15:21:43;22.60;72.70
39777;DHT22;25453;48.162;14.510;2022-08-21T15:24:22;22.60;72.90
39777;DHT22;25453;48.162;14.510;2022-08-21T15:27:01;22.70;72.90
39777;DHT22;25453;48.162;14.510;2022-08-21T15:29:35;22.70;72.80
39777;DHT22;25453;48.162;14.510;2022-08-21T15:32:15;22.70;72.60
39777;DHT22;25453;48.162;14.510;2022-08-21T15:34:50;22.70;72.60
39777;DHT22;25453;48.162;14.510;2022-08-21T15:37:18;22.70;72.80
39777;DHT22;25453;48.162;14.510;2022-08-21T15:39:53;22.70;72.70
39777;DHT22;25453;48.162;14.510;2022-08-21T15:42:20;22.70;72.50
39777;DHT22;25453;48.162;14.510;2022-08-21T15:44:55;22.70;72.60
39777;DHT22;25453;48.162;14.510;2022-08-21T15:47:28;22.60;72.60
39777;DHT22;25453;48.162;14.510;2022-08-21T15:50:06;22.60;72.40
39777;DHT22;25453;48.162;14.510;2022-08-21T15:52:34;22.40;72.40
39777;DHT22;25453;48.162;14.510;2022-08-21T15:55:09;22.30;72.60
39777;DHT22;25453;48.162;14.510;2022-08-21T15:57:38;22.20;72.40
39777;DHT22;25453;48.162;14.510;2022-08-21T16:00:24;22.00;72.60
39777;DHT22;25453;48.162;14.510;2022-08-21T16:02:53;21.90;72.80
39777;DHT22;25453;48.162;14.510;2022-08-21T16:05:28;21.80;72.90
39777;DHT22;25453;48.162;14.510;2022-08-21T16:07:56;21.80;73.20
39777;DHT22;25453;48.162;14.510;2022-08-21T16:10:30;21.70;73.40
39777;DHT22;25453;48.162;14.510;2022-08-21T16:13:06;21.60;73.60
39777;DHT22;25453;48.162;14.510;2022-08-21T16:15:40;21.60;73.70
39777;DHT22;25453;48.162;14.510;2022-08-21T16:18:08;21.60;73.90
39777;DHT22;25453;48.162;14.510;2022-08-21T16:20:43;21.60;73.90
39777;DHT22;25453;48.162;14.510;2022-08-21T16:23:10;21.70;73.90
39777;DHT22;25453;48.162;14.510;2022-08-21T16:25:44;21.60;73.80
39777;DHT22;25453;48.162;14.510;2022-08-21T16:28:20;21.60;73.90
39777;DHT22;25453;48.162;14.510;2022-08-21T16:30:49;21.60;74.00
39777;DHT22;25453;48.162;14.510;2022-08-21T16:33:27;21.60;74.00
39777;DHT22;25453;48.162;14.510;2022-08-21T16:35:57;21.60;73.80
39777;DHT22;25453;48.162;14.510;2022-08-21T16:38:33;21.50;73.70
39777;DHT22;25453;48.162;14.510;2022-08-21T16:41:05;21.50;73.90
39777;DHT22;25453;48.162;14.510;2022-08-21T16:43:41;21.50;74.00
39777;DHT22;25453;48.162;14.510;2022-08-21T16:46:11;21.40;74.00
39777;DHT22;25453;48.162;14.510;2022-08-21T16:48:46;21.40;73.90
39777;DHT22;25453;48.162;14.510;2022-08-21T16:51:13;21.40;74.10
39777;DHT22;25453;48.162;14.510;2022-08-21T16:53:41;21.40;74.00
39777;DHT22;25453;48.162;14.510;2022-08-21T16:56:16;21.40;74.10
39777;DHT22;25453;48.162;14.510;2022-08-21T16:58:46;21.40;74.10
39777;DHT22;25453;48.162;14.510;2022-08-21T17:01:23;21.30;74.00
39777;DHT22;25453;48.162;14.510;2022-08-21T17:03:52;21.30;74.00
39777;DHT22;25453;48.162;14.510;2022-08-21T17:06:26;21.20;74.10
39777;DHT22;25453;48.162;14.510;2022-08-21T17:08:57;21.20;74.30
39777;DHT22;25453;48.162;14.510;2022-08-21T17:11:34;21.20;74.30
39777;DHT22;25453;48.162;14.510;2022-08-21T17:14:09;21.20;74.50
39777;DHT22;25453;48.162;14.510;2022-08-21T17:17:06;21.20;74.60